createdAt,value
2023-02-24T00:00:16.191Z,4109.4
2023-02-24T00:05:52.219Z,4106.6
2023-02-24T00:11:27.640Z,4106.9
2023-02-24T00:17:05.087Z,4107.9
2023-02-24T00:22:39.985Z,4106.1
2023-02-24T00:28:15.623Z,4104.4
2023-02-24T00:33:50.768Z,4107.1
2023-02-24T00:39:25.961Z,4102.6
2023-02-24T00:45:01.844Z,4103.1
2023-02-24T00:50:37.084Z,4103.1
2023-02-24T00:56:12.075Z,4102.7
2023-02-24T01:01:49.855Z,4102.4
2023-02-24T01:07:25.575Z,4101.6
2023-02-24T01:13:00.683Z,4101.7
2023-02-24T01:18:36.940Z,4101.6
2023-02-24T01:24:12.339Z,4101.7
2023-02-24T01:29:47.182Z,4101.9
2023-02-24T01:35:22.910Z,4100.2
2023-02-24T01:40:58.565Z,4100.7
2023-02-24T01:46:34.765Z,4101.6
2023-02-24T01:52:10.413Z,4102.6
2023-02-24T01:57:45.481Z,4104.3
2023-02-24T02:03:20.519Z,4099.2
2023-02-24T02:08:56.349Z,4097.6
2023-02-24T02:14:31.246Z,4099.1
2023-02-24T02:20:06.212Z,4099.4
2023-02-24T02:25:42.096Z,4098.9
2023-02-24T02:31:27.911Z,4098.1
2023-02-24T02:37:03.162Z,4099.1
2023-02-24T02:42:39.578Z,4097.4
2023-02-24T02:48:15.882Z,4098.7
2023-02-24T02:53:51.356Z,4096.4
2023-02-24T02:59:27.069Z,4095.9
2023-02-24T03:05:06.462Z,4098.4
2023-02-24T03:10:42.082Z,4095.4
2023-02-24T03:16:18.217Z,4096.9
2023-02-24T03:21:53.865Z,4092.9
2023-02-24T03:27:28.914Z,4096.5
2023-02-24T03:33:04.396Z,4093.5
2023-02-24T03:38:40.616Z,4095.2
2023-02-24T03:44:16.032Z,4094.7
2023-02-24T03:49:52.438Z,4094.9
2023-02-24T03:55:27.513Z,4094.5
2023-02-24T04:01:02.594Z,4094.7
2023-02-24T04:06:39.255Z,4092.7
2023-02-24T04:12:15.944Z,4093.9
2023-02-24T04:17:51.729Z,4094.7
2023-02-24T04:23:28.248Z,4094.2
2023-02-24T04:29:04.351Z,4092.7
2023-02-24T04:34:39.901Z,4094.2
2023-02-24T04:40:15.044Z,4090.4
2023-02-24T04:45:50.271Z,4094.2
2023-02-24T04:51:25.555Z,4091.2
2023-02-24T04:57:01.228Z,4092.2
2023-02-24T05:02:36.667Z,4090.5
2023-02-24T05:08:12.062Z,4092.5
2023-02-24T05:13:48.154Z,4091
2023-02-24T05:19:25.564Z,4090.9
2023-02-24T05:25:00.863Z,4089.8
2023-02-24T05:30:36.861Z,4091.9
2023-02-24T05:36:12.807Z,4089
2023-02-24T05:41:48.106Z,4088.3
2023-02-24T05:47:23.816Z,4087.2
2023-02-24T05:52:59.272Z,4086.3
2023-02-24T05:58:34.839Z,4089
2023-02-24T06:04:10.728Z,4086
2023-02-24T06:09:46.298Z,4086.7
2023-02-24T06:15:21.567Z,4084.7
2023-02-24T06:20:56.645Z,4086.8
2023-02-24T06:26:31.910Z,4082.3
2023-02-24T06:32:09.482Z,4085
2023-02-24T06:37:45.100Z,4083
2023-02-24T06:43:20.653Z,4082.5
2023-02-24T06:48:56.356Z,4083.8
2023-02-24T06:54:32.561Z,4082
2023-02-24T07:00:13.446Z,4083.3
2023-02-24T07:05:50.584Z,4083.3
2023-02-24T07:11:27.612Z,4078.1
2023-02-24T07:17:06.388Z,4094.4
2023-02-24T07:23:10.733Z,4098.4
2023-02-24T07:28:51.468Z,4096.2
2023-02-24T07:34:26.789Z,4097.6
2023-02-24T07:40:02.184Z,4120.5
2023-02-24T07:45:38.844Z,4126
2023-02-24T07:51:18.356Z,4130.7
2023-02-24T07:56:57.730Z,4140.1
2023-02-24T08:02:38.113Z,4129.2
2023-02-24T08:08:19.867Z,4175.9
2023-02-24T08:14:17.861Z,4192
2023-02-24T08:20:47.463Z,4169.9
2023-02-24T08:26:33.367Z,4187.3
2023-02-24T08:32:12.128Z,4181.5
2023-02-24T08:37:47.924Z,4167.4
2023-02-24T08:43:50.099Z,4162
2023-02-24T08:49:25.659Z,4189.8
2023-02-24T08:55:21.001Z,4181.1
2023-02-24T09:00:56.817Z,4164.2
2023-02-24T09:06:41.467Z,4163.2
2023-02-24T09:12:20.620Z,4187
2023-02-24T09:18:00.755Z,4176.3
2023-02-24T09:23:37.064Z,4178.3
2023-02-24T09:29:24.864Z,4172.6
2023-02-24T09:35:00.480Z,4191.9
2023-02-24T09:40:43.088Z,4166.4
2023-02-24T09:46:26.623Z,4200.2
2023-02-24T09:52:15.545Z,4185
2023-02-24T09:58:12.601Z,4199.6
2023-02-24T10:03:48.876Z,4191.9
2023-02-24T10:09:27.240Z,4178.3
2023-02-24T10:15:02.804Z,4200.2
2023-02-24T10:20:39.090Z,4179.8
2023-02-24T10:26:27.400Z,4188.3
2023-02-24T10:32:04.641Z,4181
2023-02-24T10:37:40.609Z,4195.5
2023-02-24T10:43:37.258Z,4188.8
2023-02-24T10:49:13.550Z,4196.7
2023-02-24T10:54:49.654Z,4193.7
2023-02-24T11:00:25.078Z,4196.2
2023-02-24T11:06:02.829Z,4183.3
2023-02-24T11:11:39.422Z,4197.5
2023-02-24T11:17:47.643Z,4210.3
2023-02-24T11:23:27.124Z,4209.4
2023-02-24T11:29:28.054Z,4214.6
2023-02-24T11:35:03.487Z,4198.9
2023-02-24T11:40:39.749Z,4187.8
2023-02-24T11:46:24.127Z,4211.3
2023-02-24T11:52:00.186Z,4194.4
2023-02-24T11:57:50.997Z,4199.7
2023-02-24T12:03:26.509Z,4190.9
2023-02-24T12:09:04.437Z,4192
2023-02-24T12:14:46.029Z,4213.6
2023-02-24T12:20:22.154Z,4220
2023-02-24T12:26:06.874Z,4205.1
2023-02-24T12:31:43.853Z,4189.8
2023-02-24T12:37:19.591Z,4201.1
2023-02-24T12:42:54.933Z,4197
2023-02-24T12:49:15.195Z,4209.1
2023-02-24T12:54:51.144Z,4216.5
2023-02-24T13:00:26.326Z,4199.9
2023-02-24T13:06:01.171Z,4199.9
2023-02-24T13:11:36.822Z,4212.6
2023-02-24T13:17:11.808Z,4213.8
2023-02-24T13:23:03.761Z,4200.1
2023-02-24T13:28:58.067Z,4212.1
2023-02-24T13:34:45.178Z,4203.1
2023-02-24T13:40:24.852Z,4221.3
2023-02-24T13:46:01.739Z,4202.4
2023-02-24T13:51:37.606Z,4221.5
2023-02-24T13:57:24.127Z,4198.9
2023-02-24T14:02:59.966Z,4202.2
2023-02-24T14:08:41.030Z,4207.3
2023-02-24T14:14:16.224Z,4207.4
2023-02-24T14:19:51.989Z,4213
2023-02-24T14:25:28.506Z,4218.2
2023-02-24T14:31:17.627Z,4199.2
2023-02-24T14:37:55.001Z,4214
2023-02-24T14:43:33.020Z,4213.8
2023-02-24T14:49:08.782Z,4210.6
2023-02-24T14:54:48.921Z,4225.5
2023-02-24T15:00:46.235Z,4215.1
2023-02-24T15:06:24.922Z,4223
2023-02-24T15:12:00.875Z,4223.7
2023-02-24T15:18:04.266Z,4212.6
2023-02-24T15:23:42.299Z,4211.8
2023-02-24T15:29:17.547Z,4211
2023-02-24T15:34:55.200Z,4215.6
2023-02-24T15:40:31.458Z,4227
2023-02-24T15:46:07.848Z,4209.4
2023-02-24T15:51:49.415Z,4219.5
2023-02-24T15:57:44.676Z,4195.9
2023-02-24T16:03:28.593Z,4191.4
2023-02-24T16:09:31.115Z,4193.9
2023-02-24T16:15:49.302Z,4193
2023-02-24T16:21:38.428Z,4189.7
2023-02-24T16:27:21.066Z,4189.3
2023-02-24T16:33:07.462Z,4186.7
2023-02-24T16:38:52.204Z,4181.8
2023-02-24T16:44:33.242Z,4180.8
2023-02-24T16:50:13.324Z,4178.8
2023-02-24T16:55:58.648Z,4178
2023-02-24T17:01:36.001Z,4176.4
2023-02-24T17:07:27.241Z,4176.6
2023-02-24T17:13:09.215Z,4170.7
2023-02-24T17:18:54.330Z,4172.9
2023-02-24T17:24:29.793Z,4171.3
2023-02-24T17:30:27.639Z,4171.1
2023-02-24T17:36:10.312Z,4167.7
2023-02-24T17:42:07.417Z,4168.9
2023-02-24T17:47:42.868Z,4166.9
2023-02-24T17:53:18.354Z,4168.2
2023-02-24T17:58:57.911Z,4170.6
2023-02-24T18:04:34.184Z,4167.2
2023-02-24T18:10:16.053Z,4166.2
2023-02-24T18:16:09.811Z,4163.5
2023-02-24T18:21:45.245Z,4163.5
2023-02-24T18:28:02.183Z,4164.2
2023-02-24T18:34:09.730Z,4165.4
2023-02-24T18:39:58.480Z,4164.6
2023-02-24T18:45:35.836Z,4165.1
2023-02-24T18:51:11.776Z,4163
2023-02-24T18:56:47.471Z,4164.9
2023-02-24T19:02:26.037Z,4163.2
2023-02-24T19:08:02.186Z,4163.5
2023-02-24T19:13:37.567Z,4162.4
2023-02-24T19:19:15.756Z,4162.5
2023-02-24T19:24:54.524Z,4163.4
2023-02-24T19:30:32.918Z,4160.5
2023-02-24T19:36:09.797Z,4162.4
2023-02-24T19:41:44.738Z,4159
2023-02-24T19:47:26.944Z,4160.5
2023-02-24T19:54:58.165Z,4156.8
2023-02-24T20:00:39.214Z,4155.3
2023-02-24T20:06:54.043Z,4158.2
2023-02-24T20:12:50.440Z,4156.3
2023-02-24T20:19:11.913Z,4155.8
2023-02-24T20:24:48.383Z,4155.3
2023-02-24T20:30:23.071Z,4155.8
2023-02-24T20:36:11.832Z,4152.8
2023-02-24T20:41:48.040Z,4152.3
2023-02-24T20:47:26.088Z,4153.2
2023-02-24T20:53:09.058Z,4151.3
2023-02-24T20:58:46.496Z,4151.3
2023-02-24T21:04:22.160Z,4150.8
2023-02-24T21:10:28.648Z,4150.1
2023-02-24T21:16:11.245Z,4149.1
2023-02-24T21:21:59.352Z,4150.3
2023-02-24T21:27:34.228Z,4150.8
2023-02-24T21:33:18.091Z,4147.6
2023-02-24T21:39:08.925Z,4149.1
2023-02-24T21:44:53.531Z,4149.6
2023-02-24T21:50:33.988Z,4149.5
2023-02-24T21:56:19.910Z,4148.3
2023-02-24T22:01:57.281Z,4145.8
2023-02-24T22:07:36.566Z,4146.1
2023-02-24T22:13:39.362Z,4146.6
2023-02-24T22:19:42.480Z,4146.3
2023-02-24T22:25:26.625Z,4146.1
2023-02-24T22:31:04.138Z,4147
2023-02-24T22:36:49.819Z,4145.5
2023-02-24T22:42:41.640Z,4142.8
2023-02-24T22:49:48.816Z,4142.8
2023-02-24T22:55:24.708Z,4142.9
2023-02-24T23:01:01.254Z,4141.8
2023-02-24T23:06:37.902Z,4144.6
2023-02-24T23:12:41.739Z,4145
2023-02-24T23:18:18.258Z,4142.6
2023-02-24T23:23:54.007Z,4141.9
2023-02-24T23:29:30.252Z,4138.6
2023-02-24T23:35:08.030Z,4141.1
2023-02-24T23:41:12.972Z,4139.6
2023-02-24T23:47:08.819Z,4138.1
2023-02-24T23:53:03.460Z,4136.6
2023-02-24T23:58:56.621Z,4139.6
